sensor_id;sensor_type;location;lat;lon;timestamp;temperature;humidity
7970;DHT22;4030;52.362;9.206;2023-04-24T00:00:11;16.80;66.80
7970;DHT22;4030;52.362;9.206;2023-04-24T00:02:40;16.80;66.80
7970;DHT22;4030;52.362;9.206;2023-04-24T00:05:10;16.80;66.90
7970;DHT22;4030;52.362;9.206;2023-04-24T00:10:02;16.80;67.00
7970;DHT22;4030;52.362;9.206;2023-04-24T00:19:47;16.80;67.20
7970;DHT22;4030;52.362;9.206;2023-04-24T00:22:14;16.70;67.10
7970;DHT22;4030;52.362;9.206;2023-04-24T00:27:06;16.80;67.30
7970;DHT22;4030;52.362;9.206;2023-04-24T00:34:24;16.70;67.10
7970;DHT22;4030;52.362;9.206;2023-04-24T00:36:49;16.60;66.70
7970;DHT22;4030;52.362;9.206;2023-04-24T00:39:21;16.60;66.30
7970;DHT22;4030;52.362;9.206;2023-04-24T00:41:48;16.60;66.00
7970;DHT22;4030;52.362;9.206;2023-04-24T00:44:14;16.50;65.30
7970;DHT22;4030;52.362;9.206;2023-04-24T00:46:40;16.50;64.90
7970;DHT22;4030;52.362;9.206;2023-04-24T00:51:33;16.50;64.00
7970;DHT22;4030;52.362;9.206;2023-04-24T00:54:00;16.40;63.50
7970;DHT22;4030;52.362;9.206;2023-04-24T00:56:26;16.40;63.00
7970;DHT22;4030;52.362;9.206;2023-04-24T00:58:52;16.40;62.80
7970;DHT22;4030;52.362;9.206;2023-04-24T01:01:21;16.30;62.60
7970;DHT22;4030;52.362;9.206;2023-04-24T01:03:49;16.30;62.40
7970;DHT22;4030;52.362;9.206;2023-04-24T01:06:16;16.30;62.40
7970;DHT22;4030;52.362;9.206;2023-04-24T01:08:45;16.30;62.30
7970;DHT22;4030;52.362;9.206;2023-04-24T01:11:11;16.20;62.10
7970;DHT22;4030;52.362;9.206;2023-04-24T01:13:37;16.20;62.00
7970;DHT22;4030;52.362;9.206;2023-04-24T01:18:29;16.20;62.00
7970;DHT22;4030;52.362;9.206;2023-04-24T01:20:59;16.20;61.90
7970;DHT22;4030;52.362;9.206;2023-04-24T01:23:26;16.10;61.80
7970;DHT22;4030;52.362;9.206;2023-04-24T01:25:52;16.20;62.00
7970;DHT22;4030;52.362;9.206;2023-04-24T01:28:18;16.10;61.90
7970;DHT22;4030;52.362;9.206;2023-04-24T01:30:44;16.10;61.90
7970;DHT22;4030;52.362;9.206;2023-04-24T01:33:10;16.10;61.90
7970;DHT22;4030;52.362;9.206;2023-04-24T01:35:37;16.00;61.80
7970;DHT22;4030;52.362;9.206;2023-04-24T01:38:03;16.00;61.80
7970;DHT22;4030;52.362;9.206;2023-04-24T01:40:29;16.00;61.90
7970;DHT22;4030;52.362;9.206;2023-04-24T01:42:55;16.10;62.10
7970;DHT22;4030;52.362;9.206;2023-04-24T01:45:21;16.00;62.00
7970;DHT22;4030;52.362;9.206;2023-04-24T01:47:47;16.00;62.00
7970;DHT22;4030;52.362;9.206;2023-04-24T01:55:07;16.10;62.00
7970;DHT22;4030;52.362;9.206;2023-04-24T01:57:33;15.90;61.80
7970;DHT22;4030;52.362;9.206;2023-04-24T01:59:59;15.90;61.80
7970;DHT22;4030;52.362;9.206;2023-04-24T02:02:25;15.90;61.80
7970;DHT22;4030;52.362;9.206;2023-04-24T02:04:53;15.90;61.80
7970;DHT22;4030;52.362;9.206;2023-04-24T02:07:19;15.90;61.80
7970;DHT22;4030;52.362;9.206;2023-04-24T02:09:45;15.80;61.70
7970;DHT22;4030;52.362;9.206;2023-04-24T02:12:11;15.80;61.80
7970;DHT22;4030;52.362;9.206;2023-04-24T02:14:37;15.80;61.80
7970;DHT22;4030;52.362;9.206;2023-04-24T02:53:34;15.70;62.30
7970;DHT22;4030;52.362;9.206;2023-04-24T02:56:00;15.60;62.00
7970;DHT22;4030;52.362;9.206;2023-04-24T03:00:55;15.60;61.90
7970;DHT22;4030;52.362;9.206;2023-04-24T03:03:21;15.50;61.80
7970;DHT22;4030;52.362;9.206;2023-04-24T03:05:47;15.50;61.70
7970;DHT22;4030;52.362;9.206;2023-04-24T03:08:13;15.50;61.60
7970;DHT22;4030;52.362;9.206;2023-04-24T03:10:39;15.50;61.50
7970;DHT22;4030;52.362;9.206;2023-04-24T03:13:05;15.40;61.40
7970;DHT22;4030;52.362;9.206;2023-04-24T03:15:31;15.40;61.30
7970;DHT22;4030;52.362;9.206;2023-04-24T03:17:57;15.50;61.50
7970;DHT22;4030;52.362;9.206;2023-04-24T03:22:49;15.40;61.40
7970;DHT22;4030;52.362;9.206;2023-04-24T03:30:07;15.40;61.50
7970;DHT22;4030;52.362;9.206;2023-04-24T03:32:33;15.40;61.60
7970;DHT22;4030;52.362;9.206;2023-04-24T03:37:26;15.30;61.40
7970;DHT22;4030;52.362;9.206;2023-04-24T03:39:52;15.30;61.50
7970;DHT22;4030;52.362;9.206;2023-04-24T03:42:18;15.30;61.50
7970;DHT22;4030;52.362;9.206;2023-04-24T03:44:43;15.20;61.30
7970;DHT22;4030;52.362;9.206;2023-04-24T03:56:53;15.20;61.50
7970;DHT22;4030;52.362;9.206;2023-04-24T04:16:22;15.20;61.90
7970;DHT22;4030;52.362;9.206;2023-04-24T04:18:48;15.10;61.90
7970;DHT22;4030;52.362;9.206;2023-04-24T04:26:07;15.20;62.30
7970;DHT22;4030;52.362;9.206;2023-04-24T04:28:33;15.10;62.30
7970;DHT22;4030;52.362;9.206;2023-04-24T04:30:58;15.20;62.40
7970;DHT22;4030;52.362;9.206;2023-04-24T04:35:51;15.20;62.50
7970;DHT22;4030;52.362;9.206;2023-04-24T04:38:23;15.20;62.50
7970;DHT22;4030;52.362;9.206;2023-04-24T04:43:15;15.20;62.50
7970;DHT22;4030;52.362;9.206;2023-04-24T04:45:41;15.20;62.70
7970;DHT22;4030;52.362;9.206;2023-04-24T04:48:09;15.20;62.70
7970;DHT22;4030;52.362;9.206;2023-04-24T04:50:37;15.20;62.70
7970;DHT22;4030;52.362;9.206;2023-04-24T04:53:03;15.20;62.70
7970;DHT22;4030;52.362;9.206;2023-04-24T04:55:29;15.30;62.80
7970;DHT22;4030;52.362;9.206;2023-04-24T04:57:55;15.20;62.60
7970;DHT22;4030;52.362;9.206;2023-04-24T05:00:21;15.20;62.50
7970;DHT22;4030;52.362;9.206;2023-04-24T05:05:15;15.30;62.70
7970;DHT22;4030;52.362;9.206;2023-04-24T05:07:43;15.30;62.60
7970;DHT22;4030;52.362;9.206;2023-04-24T05:10:09;15.30;62.60
7970;DHT22;4030;52.362;9.206;2023-04-24T05:15:02;15.30;62.70
7970;DHT22;4030;52.362;9.206;2023-04-24T05:17:28;15.30;62.70
7970;DHT22;4030;52.362;9.206;2023-04-24T05:19:54;15.30;62.70
7970;DHT22;4030;52.362;9.206;2023-04-24T05:22:20;15.30;62.70
7970;DHT22;4030;52.362;9.206;2023-04-24T05:24:46;15.30;62.50
7970;DHT22;4030;52.362;9.206;2023-04-24T05:27:13;15.40;62.80
7970;DHT22;4030;52.362;9.206;2023-04-24T05:29:39;15.40;62.70
7970;DHT22;4030;52.362;9.206;2023-04-24T05:32:05;15.40;62.80
7970;DHT22;4030;52.362;9.206;2023-04-24T05:34:31;15.40;62.80
7970;DHT22;4030;52.362;9.206;2023-04-24T05:36:57;15.40;62.90
7970;DHT22;4030;52.362;9.206;2023-04-24T05:39:23;15.50;62.90
7970;DHT22;4030;52.362;9.206;2023-04-24T05:44:16;15.50;62.70
7970;DHT22;4030;52.362;9.206;2023-04-24T05:56:28;15.50;62.70
7970;DHT22;4030;52.362;9.206;2023-04-24T05:58:54;15.60;62.70
7970;DHT22;4030;52.362;9.206;2023-04-24T06:11:07;15.60;62.10
7970;DHT22;4030;52.362;9.206;2023-04-24T06:35:28;15.60;61.60
7970;DHT22;4030;52.362;9.206;2023-04-24T06:37:54;15.70;61.60
7970;DHT22;4030;52.362;9.206;2023-04-24T06:55:02;15.90;61.30
7970;DHT22;4030;52.362;9.206;2023-04-24T06:59:55;15.90;61.30
7970;DHT22;4030;52.362;9.206;2023-04-24T07:02:20;16.00;61.20
7970;DHT22;4030;52.362;9.206;2023-04-24T07:07:13;16.00;60.90
7970;DHT22;4030;52.362;9.206;2023-04-24T07:09:39;16.10;60.90
7970;DHT22;4030;52.362;9.206;2023-04-24T07:12:08;16.10;60.90
7970;DHT22;4030;52.362;9.206;2023-04-24T07:14:36;16.10;60.80
7970;DHT22;4030;52.362;9.206;2023-04-24T07:17:03;16.20;60.90
7970;DHT22;4030;52.362;9.206;2023-04-24T07:19:29;16.10;60.80
7970;DHT22;4030;52.362;9.206;2023-04-24T07:29:13;16.00;60.70
7970;DHT22;4030;52.362;9.206;2023-04-24T07:31:39;16.00;60.70
7970;DHT22;4030;52.362;9.206;2023-04-24T07:34:06;16.00;60.70
7970;DHT22;4030;52.362;9.206;2023-04-24T07:36:32;16.00;60.80
7970;DHT22;4030;52.362;9.206;2023-04-24T07:38:58;15.90;60.80
7970;DHT22;4030;52.362;9.206;2023-04-24T07:41:23;16.00;60.80
7970;DHT22;4030;52.362;9.206;2023-04-24T07:46:16;15.90;60.70
7970;DHT22;4030;52.362;9.206;2023-04-24T07:51:08;15.90;60.60
7970;DHT22;4030;52.362;9.206;2023-04-24T07:53:36;15.90;60.60
7970;DHT22;4030;52.362;9.206;2023-04-24T08:10:38;16.30;66.90
7970;DHT22;4030;52.362;9.206;2023-04-24T08:17:57;16.40;64.40
7970;DHT22;4030;52.362;9.206;2023-04-24T08:20:22;16.30;63.60
7970;DHT22;4030;52.362;9.206;2023-04-24T08:30:07;16.30;61.80
7970;DHT22;4030;52.362;9.206;2023-04-24T08:32:33;16.30;61.30
7970;DHT22;4030;52.362;9.206;2023-04-24T08:34:59;16.30;61.10
7970;DHT22;4030;52.362;9.206;2023-04-24T08:37:26;16.30;60.80
7970;DHT22;4030;52.362;9.206;2023-04-24T08:39:53;16.30;60.70
7970;DHT22;4030;52.362;9.206;2023-04-24T08:44:46;16.40;60.30
7970;DHT22;4030;52.362;9.206;2023-04-24T08:47:15;16.40;60.00
7970;DHT22;4030;52.362;9.206;2023-04-24T08:49:41;16.40;59.80
7970;DHT22;4030;52.362;9.206;2023-04-24T08:52:08;16.50;59.80
7970;DHT22;4030;52.362;9.206;2023-04-24T08:54:35;16.40;59.60
7970;DHT22;4030;52.362;9.206;2023-04-24T08:57:02;16.50;59.60
7970;DHT22;4030;52.362;9.206;2023-04-24T08:59:32;16.40;59.40
7970;DHT22;4030;52.362;9.206;2023-04-24T09:01:59;16.50;59.40
7970;DHT22;4030;52.362;9.206;2023-04-24T09:04:25;16.40;59.10
7970;DHT22;4030;52.362;9.206;2023-04-24T09:06:56;16.40;59.10
7970;DHT22;4030;52.362;9.206;2023-04-24T09:09:24;16.40;59.10
7970;DHT22;4030;52.362;9.206;2023-04-24T09:11:52;16.30;59.00
7970;DHT22;4030;52.362;9.206;2023-04-24T09:14:21;16.30;59.00
7970;DHT22;4030;52.362;9.206;2023-04-24T09:16:50;16.30;58.90
7970;DHT22;4030;52.362;9.206;2023-04-24T09:19:15;16.30;58.90
7970;DHT22;4030;52.362;9.206;2023-04-24T09:21:45;16.30;58.80
7970;DHT22;4030;52.362;9.206;2023-04-24T09:24:19;16.30;58.80
7970;DHT22;4030;52.362;9.206;2023-04-24T09:26:49;16.30;58.90
7970;DHT22;4030;52.362;9.206;2023-04-24T09:29:16;16.30;58.90
7970;DHT22;4030;52.362;9.206;2023-04-24T09:31:42;16.20;58.70
7970;DHT22;4030;52.362;9.206;2023-04-24T09:34:09;16.10;58.70
7970;DHT22;4030;52.362;9.206;2023-04-24T09:36:36;16.20;58.60
7970;DHT22;4030;52.362;9.206;2023-04-24T09:39:05;16.20;58.50
7970;DHT22;4030;52.362;9.206;2023-04-24T09:41:48;16.30;58.50
7970;DHT22;4030;52.362;9.206;2023-04-24T09:44:24;16.40;58.50
7970;DHT22;4030;52.362;9.206;2023-04-24T09:46:56;16.50;58.40
7970;DHT22;4030;52.362;9.206;2023-04-24T09:49:30;16.50;58.40
7970;DHT22;4030;52.362;9.206;2023-04-24T09:52:09;16.70;58.50
7970;DHT22;4030;52.362;9.206;2023-04-24T09:54:36;16.60;58.40
7970;DHT22;4030;52.362;9.206;2023-04-24T09:57:02;16.70;58.50
7970;DHT22;4030;52.362;9.206;2023-04-24T09:59:29;16.60;58.40
7970;DHT22;4030;52.362;9.206;2023-04-24T10:01:55;16.60;58.40
7970;DHT22;4030;52.362;9.206;2023-04-24T10:04:23;16.60;58.30
7970;DHT22;4030;52.362;9.206;2023-04-24T10:06:55;16.60;58.10
7970;DHT22;4030;52.362;9.206;2023-04-24T10:09:24;16.70;58.10
7970;DHT22;4030;52.362;9.206;2023-04-24T10:11:53;16.70;58.00
7970;DHT22;4030;52.362;9.206;2023-04-24T10:14:21;16.70;57.90
7970;DHT22;4030;52.362;9.206;2023-04-24T10:16:49;16.70;57.80
7970;DHT22;4030;52.362;9.206;2023-04-24T10:19:17;16.70;57.80
7970;DHT22;4030;52.362;9.206;2023-04-24T10:21:46;16.70;57.80
7970;DHT22;4030;52.362;9.206;2023-04-24T10:24:16;16.60;57.70
7970;DHT22;4030;52.362;9.206;2023-04-24T10:26:44;16.70;57.70
7970;DHT22;4030;52.362;9.206;2023-04-24T10:29:12;16.70;57.50
7970;DHT22;4030;52.362;9.206;2023-04-24T10:31:38;16.60;57.40
7970;DHT22;4030;52.362;9.206;2023-04-24T10:34:05;16.60;57.50
7970;DHT22;4030;52.362;9.206;2023-04-24T10:36:33;16.60;57.60
7970;DHT22;4030;52.362;9.206;2023-04-24T10:39:02;16.50;57.80
7970;DHT22;4030;52.362;9.206;2023-04-24T10:41:30;16.60;57.60
7970;DHT22;4030;52.362;9.206;2023-04-24T10:44:13;16.60;57.40
7970;DHT22;4030;52.362;9.206;2023-04-24T10:46:49;16.70;57.20
7970;DHT22;4030;52.362;9.206;2023-04-24T10:49:28;16.90;57.30
7970;DHT22;4030;52.362;9.206;2023-04-24T10:52:00;17.00;57.30
7970;DHT22;4030;52.362;9.206;2023-04-24T10:54:41;17.00;57.00
7970;DHT22;4030;52.362;9.206;2023-04-24T10:59:48;17.00;57.00
7970;DHT22;4030;52.362;9.206;2023-04-24T11:02:18;16.80;56.90
7970;DHT22;4030;52.362;9.206;2023-04-24T11:04:44;16.80;56.90
7970;DHT22;4030;52.362;9.206;2023-04-24T11:07:10;16.70;56.90
7970;DHT22;4030;52.362;9.206;2023-04-24T11:09:37;16.80;57.10
7970;DHT22;4030;52.362;9.206;2023-04-24T11:12:07;16.70;57.00
7970;DHT22;4030;52.362;9.206;2023-04-24T11:17:35;16.60;57.00
7970;DHT22;4030;52.362;9.206;2023-04-24T11:20:10;16.70;57.00
7970;DHT22;4030;52.362;9.206;2023-04-24T11:22:38;16.70;57.00
7970;DHT22;4030;52.362;9.206;2023-04-24T11:25:08;16.70;56.90
7970;DHT22;4030;52.362;9.206;2023-04-24T11:27:44;16.80;57.00
7970;DHT22;4030;52.362;9.206;2023-04-24T11:30:11;16.80;57.00
7970;DHT22;4030;52.362;9.206;2023-04-24T11:32:42;17.10;57.10
7970;DHT22;4030;52.362;9.206;2023-04-24T11:35:20;17.10;56.90
7970;DHT22;4030;52.362;9.206;2023-04-24T11:37:50;17.20;56.90
7970;DHT22;4030;52.362;9.206;2023-04-24T11:40:19;17.20;56.80
7970;DHT22;4030;52.362;9.206;2023-04-24T11:42:49;17.20;56.60
7970;DHT22;4030;52.362;9.206;2023-04-24T11:45:18;17.30;56.50
7970;DHT22;4030;52.362;9.206;2023-04-24T11:47:46;17.30;56.30
7970;DHT22;4030;52.362;9.206;2023-04-24T11:50:14;17.30;56.30
7970;DHT22;4030;52.362;9.206;2023-04-24T11:52:43;17.30;56.60
7970;DHT22;4030;52.362;9.206;2023-04-24T11:57:45;17.10;56.40
7970;DHT22;4030;52.362;9.206;2023-04-24T12:00:16;17.00;56.50
7970;DHT22;4030;52.362;9.206;2023-04-24T12:02:44;17.00;56.80
7970;DHT22;4030;52.362;9.206;2023-04-24T12:05:23;16.90;56.90
7970;DHT22;4030;52.362;9.206;2023-04-24T12:07:49;16.80;56.90
7970;DHT22;4030;52.362;9.206;2023-04-24T12:10:23;16.80;57.10
7970;DHT22;4030;52.362;9.206;2023-04-24T12:12:51;16.80;57.30
7970;DHT22;4030;52.362;9.206;2023-04-24T12:15:19;16.70;57.50
7970;DHT22;4030;52.362;9.206;2023-04-24T12:17:46;16.70;58.00
7970;DHT22;4030;52.362;9.206;2023-04-24T12:20:12;16.60;58.20
7970;DHT22;4030;52.362;9.206;2023-04-24T12:22:50;16.60;58.40
7970;DHT22;4030;52.362;9.206;2023-04-24T12:25:20;16.60;59.00
7970;DHT22;4030;52.362;9.206;2023-04-24T12:28:11;16.60;59.80
7970;DHT22;4030;52.362;9.206;2023-04-24T12:30:47;16.50;60.20
7970;DHT22;4030;52.362;9.206;2023-04-24T12:33:17;16.50;60.50
7970;DHT22;4030;52.362;9.206;2023-04-24T12:35:48;16.50;60.70
7970;DHT22;4030;52.362;9.206;2023-04-24T12:38:22;16.60;61.00
7970;DHT22;4030;52.362;9.206;2023-04-24T12:41:08;16.50;61.30
7970;DHT22;4030;52.362;9.206;2023-04-24T12:43:35;16.40;61.30
7970;DHT22;4030;52.362;9.206;2023-04-24T12:48:29;16.30;61.60
7970;DHT22;4030;52.362;9.206;2023-04-24T12:50:57;16.30;61.90
7970;DHT22;4030;52.362;9.206;2023-04-24T12:55:54;16.30;62.20
7970;DHT22;4030;52.362;9.206;2023-04-24T12:58:20;16.20;62.00
7970;DHT22;4030;52.362;9.206;2023-04-24T13:00:47;16.30;62.10
7970;DHT22;4030;52.362;9.206;2023-04-24T13:03:12;16.20;62.40
7970;DHT22;4030;52.362;9.206;2023-04-24T13:05:38;16.20;62.40
7970;DHT22;4030;52.362;9.206;2023-04-24T13:12:56;16.10;63.00
7970;DHT22;4030;52.362;9.206;2023-04-24T13:15:22;16.10;62.80
7970;DHT22;4030;52.362;9.206;2023-04-24T13:20:14;16.00;63.30
7970;DHT22;4030;52.362;9.206;2023-04-24T13:34:51;15.70;64.40
7970;DHT22;4030;52.362;9.206;2023-04-24T13:44:36;15.60;65.00
7970;DHT22;4030;52.362;9.206;2023-04-24T13:47:01;15.60;65.20
7970;DHT22;4030;52.362;9.206;2023-04-24T13:49:27;15.50;65.40
7970;DHT22;4030;52.362;9.206;2023-04-24T13:51:54;15.50;65.80
7970;DHT22;4030;52.362;9.206;2023-04-24T13:54:21;15.50;65.70
7970;DHT22;4030;52.362;9.206;2023-04-24T13:56:48;15.40;66.00
7970;DHT22;4030;52.362;9.206;2023-04-24T13:59:14;15.50;66.20
7970;DHT22;4030;52.362;9.206;2023-04-24T14:01:40;15.50;66.30
7970;DHT22;4030;52.362;9.206;2023-04-24T14:04:06;15.40;66.50
7970;DHT22;4030;52.362;9.206;2023-04-24T14:06:32;15.40;66.50
7970;DHT22;4030;52.362;9.206;2023-04-24T14:11:23;15.30;66.60
7970;DHT22;4030;52.362;9.206;2023-04-24T14:13:49;15.30;66.60
7970;DHT22;4030;52.362;9.206;2023-04-24T14:16:15;15.30;66.90
7970;DHT22;4030;52.362;9.206;2023-04-24T14:18:41;15.40;66.80
7970;DHT22;4030;52.362;9.206;2023-04-24T14:21:07;15.40;66.80
7970;DHT22;4030;52.362;9.206;2023-04-24T14:23:32;15.30;66.70
7970;DHT22;4030;52.362;9.206;2023-04-24T14:25:58;15.60;67.20
7970;DHT22;4030;52.362;9.206;2023-04-24T14:28:25;15.50;67.10
7970;DHT22;4030;52.362;9.206;2023-04-24T14:30:51;15.60;67.50
7970;DHT22;4030;52.362;9.206;2023-04-24T14:33:18;15.60;67.50
7970;DHT22;4030;52.362;9.206;2023-04-24T14:35:43;15.50;67.40
7970;DHT22;4030;52.362;9.206;2023-04-24T14:38:10;15.50;67.20
7970;DHT22;4030;52.362;9.206;2023-04-24T14:40:36;15.40;67.30
7970;DHT22;4030;52.362;9.206;2023-04-24T14:45:29;15.40;67.50
7970;DHT22;4030;52.362;9.206;2023-04-24T14:47:55;15.40;67.30
7970;DHT22;4030;52.362;9.206;2023-04-24T14:50:21;15.30;67.40
7970;DHT22;4030;52.362;9.206;2023-04-24T14:52:47;15.40;67.60
7970;DHT22;4030;52.362;9.206;2023-04-24T14:57:39;15.40;67.80
7970;DHT22;4030;52.362;9.206;2023-04-24T15:00:06;15.40;67.70
7970;DHT22;4030;52.362;9.206;2023-04-24T15:02:34;15.50;67.70
7970;DHT22;4030;52.362;9.206;2023-04-24T15:05:03;15.60;67.80
7970;DHT22;4030;52.362;9.206;2023-04-24T15:07:29;15.60;67.70
7970;DHT22;4030;52.362;9.206;2023-04-24T15:09:56;15.60;67.60
7970;DHT22;4030;52.362;9.206;2023-04-24T15:12:22;15.60;67.90
7970;DHT22;4030;52.362;9.206;2023-04-24T15:14:47;15.60;68.00
7970;DHT22;4030;52.362;9.206;2023-04-24T15:26:59;15.60;68.40
7970;DHT22;4030;52.362;9.206;2023-04-24T15:29:25;15.60;68.20
7970;DHT22;4030;52.362;9.206;2023-04-24T15:31:51;15.60;68.20
7970;DHT22;4030;52.362;9.206;2023-04-24T15:34:17;15.50;68.30
7970;DHT22;4030;52.362;9.206;2023-04-24T15:36:42;15.50;68.20
7970;DHT22;4030;52.362;9.206;2023-04-24T15:39:08;15.60;68.40
7970;DHT22;4030;52.362;9.206;2023-04-24T15:41:35;15.50;68.40
7970;DHT22;4030;52.362;9.206;2023-04-24T15:46:26;15.40;68.40
7970;DHT22;4030;52.362;9.206;2023-04-24T15:48:52;15.40;68.20
7970;DHT22;4030;52.362;9.206;2023-04-24T15:53:44;15.30;68.40
7970;DHT22;4030;52.362;9.206;2023-04-24T15:58:37;15.30;68.40
7970;DHT22;4030;52.362;9.206;2023-04-24T16:01:03;15.20;68.30
7970;DHT22;4030;52.362;9.206;2023-04-24T16:03:29;15.10;68.30
7970;DHT22;4030;52.362;9.206;2023-04-24T16:05:55;15.30;68.30
7970;DHT22;4030;52.362;9.206;2023-04-24T16:13:14;15.10;68.50
7970;DHT22;4030;52.362;9.206;2023-04-24T16:15:40;15.00;68.30
7970;DHT22;4030;52.362;9.206;2023-04-24T16:18:06;15.00;68.10
7970;DHT22;4030;52.362;9.206;2023-04-24T16:20:31;15.00;68.50
7970;DHT22;4030;52.362;9.206;2023-04-24T16:27:49;15.00;68.10
7970;DHT22;4030;52.362;9.206;2023-04-24T16:30:17;15.00;68.00
7970;DHT22;4030;52.362;9.206;2023-04-24T16:35:09;15.00;68.20
7970;DHT22;4030;52.362;9.206;2023-04-24T16:40:02;15.00;68.00
7970;DHT22;4030;52.362;9.206;2023-04-24T16:42:30;15.00;68.30
7970;DHT22;4030;52.362;9.206;2023-04-24T16:44:57;14.90;68.00
7970;DHT22;4030;52.362;9.206;2023-04-24T16:49:48;14.80;68.00
7970;DHT22;4030;52.362;9.206;2023-04-24T16:52:14;14.90;68.00
7970;DHT22;4030;52.362;9.206;2023-04-24T16:54:40;14.80;67.90
7970;DHT22;4030;52.362;9.206;2023-04-24T16:57:06;14.70;67.80
7970;DHT22;4030;52.362;9.206;2023-04-24T17:01:59;14.70;67.60
7970;DHT22;4030;52.362;9.206;2023-04-24T17:04:25;14.70;67.90
7970;DHT22;4030;52.362;9.206;2023-04-24T17:06:51;14.60;67.70
7970;DHT22;4030;52.362;9.206;2023-04-24T17:09:17;14.70;67.70
7970;DHT22;4030;52.362;9.206;2023-04-24T17:16:37;14.60;67.90
7970;DHT22;4030;52.362;9.206;2023-04-24T17:19:04;14.60;67.90
7970;DHT22;4030;52.362;9.206;2023-04-24T17:21:30;14.60;68.00
7970;DHT22;4030;52.362;9.206;2023-04-24T17:26:22;14.50;67.90
7970;DHT22;4030;52.362;9.206;2023-04-24T17:28:47;14.50;68.00
7970;DHT22;4030;52.362;9.206;2023-04-24T17:31:13;14.50;68.10
7970;DHT22;4030;52.362;9.206;2023-04-24T17:38:32;14.40;68.10
7970;DHT22;4030;52.362;9.206;2023-04-24T17:40:58;14.40;68.10
7970;DHT22;4030;52.362;9.206;2023-04-24T17:43:25;14.40;68.20
7970;DHT22;4030;52.362;9.206;2023-04-24T17:45:52;14.50;68.20
7970;DHT22;4030;52.362;9.206;2023-04-24T17:48:22;14.50;68.20
7970;DHT22;4030;52.362;9.206;2023-04-24T17:50:48;14.40;68.00
7970;DHT22;4030;52.362;9.206;2023-04-24T17:53:14;14.50;68.00
7970;DHT22;4030;52.362;9.206;2023-04-24T17:55:41;14.50;67.80
7970;DHT22;4030;52.362;9.206;2023-04-24T17:58:09;14.40;67.70
7970;DHT22;4030;52.362;9.206;2023-04-24T18:00:37;14.40;67.90
7970;DHT22;4030;52.362;9.206;2023-04-24T18:03:03;14.40;67.70
7970;DHT22;4030;52.362;9.206;2023-04-24T18:05:32;14.40;67.70
7970;DHT22;4030;52.362;9.206;2023-04-24T18:07:59;14.30;67.40
7970;DHT22;4030;52.362;9.206;2023-04-24T18:12:53;14.20;67.30
7970;DHT22;4030;52.362;9.206;2023-04-24T18:15:19;14.20;67.10
7970;DHT22;4030;52.362;9.206;2023-04-24T18:17:45;14.30;67.20
7970;DHT22;4030;52.362;9.206;2023-04-24T18:20:12;14.10;66.70
7970;DHT22;4030;52.362;9.206;2023-04-24T18:22:39;14.10;66.50
7970;DHT22;4030;52.362;9.206;2023-04-24T18:25:06;14.00;66.60
7970;DHT22;4030;52.362;9.206;2023-04-24T18:32:25;13.90;66.30
7970;DHT22;4030;52.362;9.206;2023-04-24T18:34:51;13.90;66.20
7970;DHT22;4030;52.362;9.206;2023-04-24T18:37:17;13.80;66.00
7970;DHT22;4030;52.362;9.206;2023-04-24T18:42:09;13.80;65.70
7970;DHT22;4030;52.362;9.206;2023-04-24T18:44:35;13.80;65.70
7970;DHT22;4030;52.362;9.206;2023-04-24T18:47:07;13.70;65.60
7970;DHT22;4030;52.362;9.206;2023-04-24T18:52:00;13.70;65.60
7970;DHT22;4030;52.362;9.206;2023-04-24T18:54:26;13.70;65.50
7970;DHT22;4030;52.362;9.206;2023-04-24T18:56:52;13.60;65.30
7970;DHT22;4030;52.362;9.206;2023-04-24T18:59:18;13.60;65.40
7970;DHT22;4030;52.362;9.206;2023-04-24T19:01:44;13.50;65.30
7970;DHT22;4030;52.362;9.206;2023-04-24T19:04:10;13.60;65.50
7970;DHT22;4030;52.362;9.206;2023-04-24T19:09:02;13.50;65.50
7970;DHT22;4030;52.362;9.206;2023-04-24T19:11:28;13.50;65.70
7970;DHT22;4030;52.362;9.206;2023-04-24T19:13:54;13.40;65.70
7970;DHT22;4030;52.362;9.206;2023-04-24T19:23:39;13.40;66.20
7970;DHT22;4030;52.362;9.206;2023-04-24T19:26:05;13.40;66.20
7970;DHT22;4030;52.362;9.206;2023-04-24T19:28:31;13.30;66.20
7970;DHT22;4030;52.362;9.206;2023-04-24T19:30:57;13.30;66.40
7970;DHT22;4030;52.362;9.206;2023-04-24T19:33:27;13.30;66.60
7970;DHT22;4030;52.362;9.206;2023-04-24T19:35:53;13.30;66.70
7970;DHT22;4030;52.362;9.206;2023-04-24T19:38:18;13.30;66.80
7970;DHT22;4030;52.362;9.206;2023-04-24T19:43:10;13.30;67.10
7970;DHT22;4030;52.362;9.206;2023-04-24T19:50:29;13.20;67.00
7970;DHT22;4030;52.362;9.206;2023-04-24T19:52:56;13.20;67.10
7970;DHT22;4030;52.362;9.206;2023-04-24T19:55:22;13.20;67.10
7970;DHT22;4030;52.362;9.206;2023-04-24T19:57:48;13.20;67.10
7970;DHT22;4030;52.362;9.206;2023-04-24T20:00:14;13.00;66.80
7970;DHT22;4030;52.362;9.206;2023-04-24T20:02:40;13.10;66.90
7970;DHT22;4030;52.362;9.206;2023-04-24T20:05:06;13.20;67.00
7970;DHT22;4030;52.362;9.206;2023-04-24T20:07:32;13.00;66.80
7970;DHT22;4030;52.362;9.206;2023-04-24T20:09:58;13.10;66.90
7970;DHT22;4030;52.362;9.206;2023-04-24T20:12:23;13.20;67.10
7970;DHT22;4030;52.362;9.206;2023-04-24T20:17:16;13.10;67.10
7970;DHT22;4030;52.362;9.206;2023-04-24T20:19:42;13.10;67.10
7970;DHT22;4030;52.362;9.206;2023-04-24T20:22:09;13.10;67.10
7970;DHT22;4030;52.362;9.206;2023-04-24T20:24:35;13.10;67.10
7970;DHT22;4030;52.362;9.206;2023-04-24T20:27:01;13.10;67.10
7970;DHT22;4030;52.362;9.206;2023-04-24T20:29:27;13.00;67.10
7970;DHT22;4030;52.362;9.206;2023-04-24T20:31:53;13.00;67.20
7970;DHT22;4030;52.362;9.206;2023-04-24T20:34:19;13.00;67.10
7970;DHT22;4030;52.362;9.206;2023-04-24T20:41:38;13.00;67.20
7970;DHT22;4030;52.362;9.206;2023-04-24T20:44:04;13.00;67.20
7970;DHT22;4030;52.362;9.206;2023-04-24T20:46:30;12.90;67.10
7970;DHT22;4030;52.362;9.206;2023-04-24T20:48:57;12.90;67.10
7970;DHT22;4030;52.362;9.206;2023-04-24T20:51:22;12.90;67.00
7970;DHT22;4030;52.362;9.206;2023-04-24T20:56:18;13.00;67.30
7970;DHT22;4030;52.362;9.206;2023-04-24T20:58:44;12.90;67.20
7970;DHT22;4030;52.362;9.206;2023-04-24T21:01:11;13.00;67.20
7970;DHT22;4030;52.362;9.206;2023-04-24T21:03:37;12.80;67.00
7970;DHT22;4030;52.362;9.206;2023-04-24T21:06:03;13.00;67.20
7970;DHT22;4030;52.362;9.206;2023-04-24T21:08:29;12.90;67.00
7970;DHT22;4030;52.362;9.206;2023-04-24T21:20:40;12.80;66.60
7970;DHT22;4030;52.362;9.206;2023-04-24T21:23:06;12.90;66.80
7970;DHT22;4030;52.362;9.206;2023-04-24T21:27:58;12.80;66.40
7970;DHT22;4030;52.362;9.206;2023-04-24T21:30:24;12.80;66.30
7970;DHT22;4030;52.362;9.206;2023-04-24T21:32:51;12.70;66.30
7970;DHT22;4030;52.362;9.206;2023-04-24T21:35:17;12.80;66.40
7970;DHT22;4030;52.362;9.206;2023-04-24T21:42:36;12.70;66.00
7970;DHT22;4030;52.362;9.206;2023-04-24T21:45:03;12.70;66.30
7970;DHT22;4030;52.362;9.206;2023-04-24T21:47:29;12.70;66.40
7970;DHT22;4030;52.362;9.206;2023-04-24T21:49:55;12.70;66.40
7970;DHT22;4030;52.362;9.206;2023-04-24T21:52:21;12.70;66.30
7970;DHT22;4030;52.362;9.206;2023-04-24T21:54:46;12.80;66.40
7970;DHT22;4030;52.362;9.206;2023-04-24T21:59:38;12.70;66.40
7970;DHT22;4030;52.362;9.206;2023-04-24T22:02:04;12.80;66.50
7970;DHT22;4030;52.362;9.206;2023-04-24T22:04:30;12.70;66.40
7970;DHT22;4030;52.362;9.206;2023-04-24T22:14:15;12.70;66.50
7970;DHT22;4030;52.362;9.206;2023-04-24T22:16:41;12.60;66.50
7970;DHT22;4030;52.362;9.206;2023-04-24T22:19:07;12.70;66.60
7970;DHT22;4030;52.362;9.206;2023-04-24T22:21:33;12.60;66.50
7970;DHT22;4030;52.362;9.206;2023-04-24T22:23:59;12.50;66.40